createdAt,value
2023-07-06T00:04:40.619Z,28.32
2023-07-06T00:09:42.706Z,27.81
2023-07-06T00:14:45.209Z,28.87
2023-07-06T00:19:48.671Z,28.13
2023-07-06T00:25:01.233Z,27.87
2023-07-06T00:30:21.193Z,28.28
2023-07-06T00:35:32.210Z,27.72
2023-07-06T00:40:35.185Z,27.53
2023-07-06T00:45:39.010Z,28.15
2023-07-06T00:50:44.331Z,27.54
2023-07-06T00:55:52.890Z,27.24
2023-07-06T01:01:01.561Z,28.03
2023-07-06T01:06:07.492Z,27.47
2023-07-06T01:11:11.082Z,27.29
2023-07-06T01:16:34.852Z,28.32
2023-07-06T01:22:04.408Z,27.58
2023-07-06T01:27:24.764Z,27.37
2023-07-06T01:32:28.866Z,28.01
2023-07-06T01:37:48.797Z,27.38
2023-07-06T01:42:51.098Z,27.10
2023-07-06T01:53:23.323Z,27.20
2023-07-06T01:58:33.936Z,26.88
2023-07-06T02:03:38.353Z,27.55
2023-07-06T02:08:43.291Z,26.94
2023-07-06T02:13:46.248Z,26.73
2023-07-06T02:18:51.033Z,27.64
2023-07-06T02:23:53.525Z,26.89
2023-07-06T02:29:03.187Z,26.42
2023-07-06T02:34:05.696Z,27.06
2023-07-06T02:39:08.174Z,26.40
2023-07-06T02:44:13.543Z,25.95
2023-07-06T02:49:17.532Z,26.81
2023-07-06T02:54:22.144Z,26.36
2023-07-06T02:59:25.534Z,25.95
2023-07-06T03:04:33.459Z,25.82
2023-07-06T03:09:50.112Z,26.16
2023-07-06T03:14:52.312Z,25.48
2023-07-06T03:19:54.908Z,25.14
2023-07-06T03:24:59.868Z,25.88
2023-07-06T03:30:12.235Z,25.39
2023-07-06T03:35:15.301Z,25.04
2023-07-06T03:40:21.375Z,25.86
2023-07-06T03:45:26.916Z,25.38
2023-07-06T03:50:33.894Z,25.23
2023-07-06T03:55:42.740Z,25.45
2023-07-06T04:00:44.870Z,25.45
2023-07-06T04:05:51.738Z,25.06
2023-07-06T04:11:16.341Z,24.84
2023-07-06T04:16:20.179Z,25.33
2023-07-06T04:21:28.615Z,24.71
2023-07-06T04:26:33.727Z,24.50
2023-07-06T04:31:37.950Z,25.08
2023-07-06T04:36:41.373Z,24.51
2023-07-06T04:41:45.311Z,24.42
2023-07-06T04:46:47.738Z,24.58
2023-07-06T04:51:56.187Z,24.89
2023-07-06T04:57:01.264Z,24.46
2023-07-06T05:02:10.988Z,24.28
2023-07-06T05:07:13.453Z,25.23
2023-07-06T05:12:18.455Z,24.78
2023-07-06T05:17:23.707Z,24.52
2023-07-06T05:22:26.713Z,24.65
2023-07-06T05:27:32.781Z,25.17
2023-07-06T05:32:39.775Z,24.95
2023-07-06T05:37:43.522Z,24.81
2023-07-06T05:42:45.961Z,25.86
2023-07-06T05:47:51.418Z,25.15
2023-07-06T05:53:07.272Z,24.84
2023-07-06T06:03:26.264Z,25.22
2023-07-06T06:08:51.834Z,24.94
2023-07-06T06:13:59.478Z,24.78
2023-07-06T06:19:03.986Z,24.74
2023-07-06T06:24:15.017Z,24.65
2023-07-06T06:29:18.586Z,24.53
2023-07-06T06:34:24.539Z,24.23
2023-07-06T06:39:27.127Z,24.21
2023-07-06T06:44:32.955Z,24.24
2023-07-06T06:49:35.623Z,24.13
2023-07-06T06:54:38.171Z,24.16
2023-07-06T06:59:42.306Z,24.22
2023-07-06T07:04:44.485Z,24.40
2023-07-06T07:09:58.388Z,24.50
2023-07-06T07:15:19.550Z,24.63
2023-07-06T07:20:22.785Z,24.71
2023-07-06T07:25:31.197Z,24.87
2023-07-06T07:30:42.165Z,25.06
2023-07-06T07:35:58.114Z,25.19
2023-07-06T07:41:01.835Z,25.40
2023-07-06T07:46:08.483Z,25.50
2023-07-06T07:51:45.668Z,25.55
2023-07-06T07:56:59.778Z,25.75
2023-07-06T08:02:23.577Z,25.94
2023-07-06T08:07:27.807Z,25.93
2023-07-06T08:12:33.966Z,25.88
2023-07-06T08:17:38.572Z,25.95
2023-07-06T08:22:42.667Z,26.15
2023-07-06T08:27:45.664Z,26.23
2023-07-06T08:32:50.370Z,26.55
2023-07-06T08:37:53.033Z,28.38
2023-07-06T08:42:59.683Z,29.19
2023-07-06T08:48:07.599Z,29.84
2023-07-06T08:53:16.048Z,30.12
2023-07-06T08:58:33.244Z,31.38
2023-07-06T09:03:43.841Z,31.20
2023-07-06T09:09:08.584Z,32.25
2023-07-06T09:14:15.263Z,32.83
2023-07-06T09:19:22.999Z,33.30
2023-07-06T09:24:32.648Z,34.39
2023-07-06T09:29:37.692Z,34.80
2023-07-06T09:34:46.708Z,34.76
2023-07-06T09:40:17.580Z,34.77
2023-07-06T09:45:30.265Z,34.10
2023-07-06T09:50:50.079Z,35.28
2023-07-06T09:55:52.497Z,34.89
2023-07-06T10:01:08.383Z,36.30
2023-07-06T10:06:57.217Z,36.45
2023-07-06T10:12:10.294Z,35.45
2023-07-06T10:17:41.867Z,35.85
2023-07-06T10:22:58.780Z,36.09
2023-07-06T10:28:24.872Z,36.82
2023-07-06T10:34:27.616Z,36.65
2023-07-06T10:39:29.917Z,36.11
2023-07-06T10:44:43.164Z,36.70
2023-07-06T10:50:04.923Z,36.68
2023-07-06T10:55:20.132Z,36.50
2023-07-06T11:00:37.067Z,36.77
2023-07-06T11:05:53.622Z,37.22
2023-07-06T11:10:58.282Z,37.56
2023-07-06T11:16:08.270Z,37.26
2023-07-06T11:21:29.216Z,38.03
2023-07-06T11:27:01.867Z,37.39
2023-07-06T11:32:45.031Z,37.36
2023-07-06T11:38:22.349Z,37.53
2023-07-06T11:43:54.387Z,37.44
2023-07-06T11:49:17.458Z,37.26
2023-07-06T11:54:43.713Z,37.07
2023-07-06T12:05:35.447Z,36.93
2023-07-06T12:10:46.139Z,36.56
2023-07-06T12:15:56.434Z,35.99
2023-07-06T12:21:06.243Z,36.08
2023-07-06T12:26:15.960Z,35.37
2023-07-06T12:31:25.296Z,35.45
2023-07-06T12:36:33.568Z,35.40
2023-07-06T12:41:41.860Z,35.15
2023-07-06T12:46:53.130Z,35.68
2023-07-06T12:51:59.101Z,35.11
2023-07-06T12:57:06.473Z,34.91
2023-07-06T13:02:17.267Z,35.28
2023-07-06T13:07:29.077Z,34.72
2023-07-06T13:12:34.842Z,34.20
2023-07-06T13:17:37.761Z,34.65
2023-07-06T13:22:40.297Z,34.11
2023-07-06T13:27:45.828Z,34.38
2023-07-06T13:32:48.532Z,34.43
2023-07-06T13:37:52.849Z,34.04
2023-07-06T13:42:55.729Z,33.97
2023-07-06T13:48:00.370Z,34.39
2023-07-06T13:53:02.927Z,34.06
2023-07-06T13:58:13.088Z,34.73
2023-07-06T14:03:36.033Z,34.09
2023-07-06T14:08:39.460Z,33.97
2023-07-06T14:13:44.939Z,33.80
2023-07-06T14:18:53.442Z,33.71
2023-07-06T14:23:55.889Z,33.57
2023-07-06T14:28:59.183Z,33.81
2023-07-06T14:34:03.319Z,33.63
2023-07-06T14:39:05.917Z,33.76
2023-07-06T14:44:10.606Z,33.87
2023-07-06T14:49:18.857Z,33.63
2023-07-06T14:54:21.077Z,34.36
2023-07-06T14:59:23.460Z,34.00
2023-07-06T15:04:25.669Z,33.84
2023-07-06T15:09:28.872Z,33.80
2023-07-06T15:14:32.652Z,33.63
2023-07-06T15:19:34.750Z,33.61
2023-07-06T15:24:36.982Z,33.72
2023-07-06T15:29:39.729Z,33.60
2023-07-06T15:34:55.620Z,33.94
2023-07-06T15:40:03.117Z,33.78
2023-07-06T15:45:06.968Z,33.53
2023-07-06T15:50:10.217Z,33.78
2023-07-06T15:55:13.368Z,33.60
2023-07-06T16:00:16.398Z,33.64
2023-07-06T16:05:19.218Z,33.63
2023-07-06T16:10:21.527Z,33.47
2023-07-06T16:15:26.593Z,33.74
2023-07-06T16:20:31.653Z,33.61
2023-07-06T16:25:34.223Z,33.50
2023-07-06T16:30:37.667Z,33.52
2023-07-06T16:35:40.928Z,33.47
2023-07-06T16:40:43.138Z,33.38
2023-07-06T16:45:48.492Z,33.55
2023-07-06T16:50:57.420Z,33.53
2023-07-06T16:56:00.309Z,33.37
2023-07-06T17:01:12.521Z,33.38
2023-07-06T17:11:33.758Z,33.37
2023-07-06T17:16:36.014Z,33.20
2023-07-06T17:21:42.412Z,33.40
2023-07-06T17:26:46.031Z,33.18
2023-07-06T17:31:58.297Z,33.22
2023-07-06T17:37:00.983Z,33.35
2023-07-06T17:42:03.766Z,32.95
2023-07-06T17:47:07.181Z,32.80
2023-07-06T17:52:09.642Z,33.00
2023-07-06T17:57:15.452Z,32.83
2023-07-06T18:02:19.095Z,32.57
2023-07-06T18:07:28.802Z,32.96
2023-07-06T18:12:43.197Z,32.58
2023-07-06T18:17:47.047Z,32.43
2023-07-06T18:22:50.267Z,32.59
2023-07-06T18:27:56.403Z,32.49
2023-07-06T18:32:59.543Z,32.22
2023-07-06T18:38:02.640Z,32.02
2023-07-06T18:43:09.954Z,31.91
2023-07-06T18:48:15.368Z,31.69
2023-07-06T18:53:26.440Z,31.58
2023-07-06T18:58:36.628Z,31.46
2023-07-06T19:03:41.502Z,31.28
2023-07-06T19:08:44.628Z,31.24
2023-07-06T19:13:46.939Z,31.21
2023-07-06T19:18:51.254Z,31.37
2023-07-06T19:23:53.763Z,31.12
2023-07-06T19:28:56.419Z,30.72
2023-07-06T19:33:59.633Z,31.07
2023-07-06T19:39:02.244Z,30.61
2023-07-06T19:44:09.192Z,30.41
2023-07-06T19:49:15.592Z,30.57
2023-07-06T19:54:17.711Z,30.40
2023-07-06T19:59:31.255Z,30.42
2023-07-06T20:04:34.124Z,30.71
2023-07-06T20:09:37.011Z,30.43
2023-07-06T20:14:41.109Z,30.30
2023-07-06T20:19:43.714Z,30.29
2023-07-06T20:24:45.940Z,29.98
2023-07-06T20:29:50.137Z,29.95
2023-07-06T20:34:57.335Z,29.88
2023-07-06T20:40:05.252Z,29.60
2023-07-06T20:45:11.696Z,29.68
2023-07-06T20:50:15.825Z,29.60
2023-07-06T20:55:19.559Z,29.35
2023-07-06T21:00:22.868Z,29.17
2023-07-06T21:05:25.215Z,28.96
2023-07-06T21:10:28.194Z,28.87
2023-07-06T21:15:38.852Z,28.66
2023-07-06T21:20:44.411Z,29.40
2023-07-06T21:25:47.338Z,30.01
2023-07-06T21:30:49.377Z,29.30
2023-07-06T21:35:51.540Z,29.46
2023-07-06T21:41:01.091Z,29.75
2023-07-06T21:46:06.453Z,28.92
2023-07-06T21:51:15.525Z,30.00
2023-07-06T21:56:24.066Z,29.14
2023-07-06T22:01:26.432Z,28.50
2023-07-06T22:06:28.729Z,28.04
2023-07-06T22:11:31.856Z,29.01
2023-07-06T22:16:34.431Z,28.17
2023-07-06T22:21:36.780Z,28.83
2023-07-06T22:26:41.738Z,28.32
2023-07-06T22:31:44.459Z,27.73
2023-07-06T22:36:46.578Z,28.53
2023-07-06T22:41:49.446Z,27.84
2023-07-06T22:46:59.574Z,27.47
2023-07-06T22:52:02.718Z,27.94
2023-07-06T22:57:11.653Z,27.36
2023-07-06T23:02:14.114Z,26.99
2023-07-06T23:07:17.170Z,27.37
2023-07-06T23:12:20.140Z,26.99
2023-07-06T23:17:22.894Z,26.89
2023-07-06T23:27:57.861Z,27.02
2023-07-06T23:33:01.535Z,27.17
2023-07-06T23:38:09.896Z,27.15
2023-07-06T23:48:34.423Z,26.45
2023-07-06T23:53:39.435Z,27.05
2023-07-06T23:58:42.497Z,26.52
